createdAt,value
2023-11-20T00:00:14.016Z,-1.56
2023-11-20T00:03:03.755Z,-1.50
2023-11-20T00:05:32.496Z,-1.46
2023-11-20T00:08:00.961Z,-1.46
2023-11-20T00:10:29.543Z,-1.46
2023-11-20T00:12:58.229Z,-1.44
2023-11-20T00:15:26.754Z,-1.42
2023-11-20T00:17:56.502Z,-1.42
2023-11-20T00:20:24.954Z,-1.41
2023-11-20T00:22:53.334Z,-1.33
2023-11-20T00:25:21.847Z,-1.30
2023-11-20T00:27:50.718Z,-1.26
2023-11-20T00:30:19.267Z,-1.28
2023-11-20T00:32:47.774Z,-1.25
2023-11-20T00:35:18.340Z,-1.21
2023-11-20T00:37:47.545Z,-1.21
2023-11-20T00:40:16.182Z,-1.23
2023-11-20T00:42:44.656Z,-1.18
2023-11-20T00:45:13.160Z,-1.26
2023-11-20T00:47:41.681Z,-1.42
2023-11-20T00:50:10.994Z,-1.48
2023-11-20T00:52:39.435Z,-1.45
2023-11-20T00:55:12.507Z,-1.49
2023-11-20T00:57:42.317Z,-1.64
2023-11-20T01:00:13.613Z,-1.76
2023-11-20T01:02:43.393Z,-1.74
2023-11-20T01:05:12.065Z,-1.65
2023-11-20T01:07:40.577Z,-1.57
2023-11-20T01:10:10.272Z,-1.68
2023-11-20T01:12:38.815Z,-1.68
2023-11-20T01:15:09.064Z,-1.78
2023-11-20T01:17:37.722Z,-1.86
2023-11-20T01:20:07.040Z,-2.02
2023-11-20T01:22:35.597Z,-2.17
2023-11-20T01:25:05.064Z,-2.17
2023-11-20T01:27:33.725Z,-2.14
2023-11-20T01:30:02.174Z,-2.07
2023-11-20T01:32:31.544Z,-2.18
2023-11-20T01:34:59.945Z,-2.10
2023-11-20T01:37:28.540Z,-2.03
2023-11-20T01:39:57.282Z,-1.99
2023-11-20T01:42:25.815Z,-1.97
2023-11-20T01:44:55.284Z,-1.95
2023-11-20T01:47:23.924Z,-1.94
2023-11-20T01:49:53.263Z,-1.94
2023-11-20T01:52:22.568Z,-1.94
2023-11-20T01:54:53.737Z,-1.98
2023-11-20T01:57:22.857Z,-1.98
2023-11-20T01:59:52.226Z,-2.03
2023-11-20T02:02:20.980Z,-2.03
2023-11-20T02:04:56.322Z,-2.08
2023-11-20T02:07:25.233Z,-2.14
2023-11-20T02:09:53.634Z,-2.13
2023-11-20T02:12:22.190Z,-2.19
2023-11-20T02:14:51.164Z,-2.25
2023-11-20T02:17:19.628Z,-2.26
2023-11-20T02:19:51.765Z,-2.28
2023-11-20T02:22:20.277Z,-2.29
2023-11-20T02:24:48.833Z,-2.38
2023-11-20T02:30:20.348Z,-2.37
2023-11-20T02:32:48.926Z,-2.35
2023-11-20T02:35:20.368Z,-2.38
2023-11-20T02:37:48.888Z,-2.44
2023-11-20T02:40:17.485Z,-2.49
2023-11-20T02:42:46.613Z,-2.49
2023-11-20T02:45:15.262Z,-2.50
2023-11-20T02:47:44.025Z,-2.50
2023-11-20T02:50:12.555Z,-2.49
2023-11-20T02:52:41.132Z,-2.47
2023-11-20T02:55:09.757Z,-2.47
2023-11-20T02:57:38.777Z,-2.44
2023-11-20T03:00:08.812Z,-2.40
2023-11-20T03:02:38.886Z,-2.37
2023-11-20T03:05:09.307Z,-2.31
2023-11-20T03:07:38.018Z,-2.24
2023-11-20T03:10:07.699Z,-2.20
2023-11-20T03:12:36.239Z,-2.14
2023-11-20T03:15:07.022Z,-2.06
2023-11-20T03:17:35.698Z,-1.98
2023-11-20T03:20:07.691Z,-1.92
2023-11-20T03:22:36.306Z,-1.90
2023-11-20T03:25:05.831Z,-1.86
2023-11-20T03:27:34.338Z,-1.81
2023-11-20T03:30:02.905Z,-1.75
2023-11-20T03:32:31.385Z,-1.71
2023-11-20T03:35:00.113Z,-1.68
2023-11-20T03:37:29.532Z,-1.65
2023-11-20T03:39:58.060Z,-1.61
2023-11-20T03:42:27.265Z,-1.61
2023-11-20T03:44:56.256Z,-1.63
2023-11-20T03:47:24.684Z,-1.64
2023-11-20T03:49:53.158Z,-1.62
2023-11-20T03:52:21.628Z,-1.61
2023-11-20T03:54:50.825Z,-1.61
2023-11-20T03:57:20.336Z,-1.61
2023-11-20T03:59:48.938Z,-1.60
2023-11-20T04:02:17.783Z,-1.60
2023-11-20T04:04:46.410Z,-1.59
2023-11-20T04:07:15.302Z,-1.57
2023-11-20T04:09:43.776Z,-1.56
2023-11-20T04:12:12.372Z,-1.60
2023-11-20T04:14:41.003Z,-1.66
2023-11-20T04:17:09.533Z,-1.73
2023-11-20T04:19:38.286Z,-1.85
2023-11-20T04:22:08.710Z,-1.91
2023-11-20T04:24:37.283Z,-2.01
2023-11-20T04:27:06.343Z,-2.08
2023-11-20T04:29:35.722Z,-2.15
2023-11-20T04:32:04.636Z,-2.16
2023-11-20T04:34:33.330Z,-2.16
2023-11-20T04:37:02.189Z,-2.17
2023-11-20T04:39:30.693Z,-2.15
2023-11-20T04:41:59.730Z,-2.15
2023-11-20T04:44:28.310Z,-2.13
2023-11-20T04:46:56.769Z,-2.12
2023-11-20T04:49:25.337Z,-2.10
2023-11-20T04:51:56.771Z,-2.07
2023-11-20T04:54:25.666Z,-2.02
2023-11-20T04:56:54.146Z,-2.03
2023-11-20T04:59:22.584Z,-2.13
2023-11-20T05:01:51.357Z,-2.27
2023-11-20T05:04:19.925Z,-2.35
2023-11-20T05:06:48.676Z,-2.39
2023-11-20T05:09:19.033Z,-2.43
2023-11-20T05:11:48.331Z,-2.45
2023-11-20T05:14:16.791Z,-2.48
2023-11-20T05:16:45.410Z,-2.56
2023-11-20T05:19:13.883Z,-2.61
2023-11-20T05:21:46.463Z,-2.62
2023-11-20T05:24:15.819Z,-2.65
2023-11-20T05:26:44.328Z,-2.68
2023-11-20T05:29:13.635Z,-2.69
2023-11-20T05:31:45.539Z,-2.70
2023-11-20T05:34:15.605Z,-2.71
2023-11-20T05:36:44.074Z,-2.72
2023-11-20T05:39:12.713Z,-2.70
2023-11-20T05:41:41.149Z,-2.63
2023-11-20T05:44:09.608Z,-2.54
2023-11-20T05:46:38.099Z,-2.42
2023-11-20T05:49:06.609Z,-2.32
2023-11-20T05:51:35.062Z,-2.22
2023-11-20T05:54:03.757Z,-2.10
2023-11-20T05:56:32.447Z,-1.97
2023-11-20T05:59:02.850Z,-1.92
2023-11-20T06:01:44.363Z,-1.89
2023-11-20T06:04:13.973Z,-1.80
2023-11-20T06:06:42.573Z,-1.71
2023-11-20T06:09:12.164Z,-1.66
2023-11-20T06:11:43.871Z,-1.58
2023-11-20T06:14:12.428Z,-1.48
2023-11-20T06:16:40.869Z,-1.39
2023-11-20T06:19:09.760Z,-1.35
2023-11-20T06:21:50.654Z,-1.38
2023-11-20T06:24:21.104Z,-1.35
2023-11-20T06:26:49.564Z,-1.34
2023-11-20T06:29:18.199Z,-1.32
2023-11-20T06:31:46.708Z,-1.27
2023-11-20T06:34:15.284Z,-1.23
2023-11-20T06:36:43.903Z,-1.23
2023-11-20T06:39:12.503Z,-1.20
2023-11-20T06:41:40.982Z,-1.15
2023-11-20T06:44:10.383Z,-1.13
2023-11-20T06:46:38.943Z,-1.12
2023-11-20T06:49:08.291Z,-1.10
2023-11-20T06:51:36.909Z,-1.05
2023-11-20T06:54:05.813Z,-1.02
2023-11-20T06:56:34.952Z,-1.05
2023-11-20T06:59:03.798Z,-1.07
2023-11-20T07:01:32.431Z,-1.00
2023-11-20T07:04:01.164Z,-0.99
2023-11-20T07:06:29.874Z,-0.99
2023-11-20T07:08:58.432Z,-0.99
2023-11-20T07:11:26.893Z,-0.98
